Warning: Javascript must be enabled to use all the features on this page!


Page Loading - Please Wait...

Click to hideNews Bulletins

Peak Streamflow for the Nation

USGS 02323500 SUWANNEE RIVER NEAR WILCOX, FLA.

Levy County, Florida
Hydrologic Unit Code 03110205
Latitude  29°35'22", Longitude  82°56'12" NAD27
Drainage area 9,640.00  square miles
Gage datum -0.53 feet above NGVD29
Output formats
Table
Graph
Tab-separated file
peakfq (watstore) format
Reselect output format
Water
Year
Date Gage
Height
(feet)
Stream-
flow
(cfs)
1931 1931-01-28 6.552,3 14,5001,7
1942 1942-03-31 12.96 29,2001,7
1944 1944-04-13 10.68 22,3001
1945 1945-09-02 11.40 24,3001
1946 1946-08-19 9.27 18,6001
1947 1947-05-01 8.96 17,9001
1948 1948-04-14 22.32 84,7001
1949 1949-09-13 9.90 20,1001
1950 1950-09-15 6.212 12,0001
1951 1950-10-29 6.40 12,400
1952 1952-03-11 6.36 16,700
1953 1953-04-26 7.14 13,900
1954 1953-10-13 9.87 20,0001
1955 1955-04-26 3.332 5,8901
1956 1956-05-17 4.852 10,3001
1957 1957-06-19 7.592 15,1001
1958 1958-05-01 11.892 25,8001
1959 1959-04-02 15.88 40,7001
1960 1960-04-21 12.80 28,6001
1961 1961-05-03 10.35 21,3001
1962 1962-04-19 8.65 17,1001
1963 1963-03-13 7.39 14,7001
1964 1964-09-22 14.96 36,7001
1965 1965-03-19 13.93 32,500
1966 1966-03-23 14.07 33,100
1967 1967-02-25 9.88 20,2001
1968 1968-03-24   7,5701
1969 1969-03-31   11,5001
1970 1970-04-16 12.36 27,200
1971 1971-09-10 8.30 15,5001
1972 1972-02-24 11.32 25,900
1973 1973-04-21 18.58 55,100
1974 1974-09-23 8.03 17,400
1975 1975-05-01 11.82 27,500
1976 1976-06-08 9.07 20,2001
1977 1977-01-21 11.10 25,3001
1978 1978-03-27 10.12 22,800
1979 1979-03-11 8.51 18,800
1980 1980-04-20 11.57 26,700
1981 1981-04-07 4.992 11,300
1982 1982-04-19 6.312 15,700
1983 1983-04-23 13.09 31,300
1984 1984-04-16 17.06 48,400
1985 1985-09-15 7.90 17,100
1986 1986-02-27 15.63 41,300
1987 1987-03-16 13.41 32,4001
1988 1988-03-18 11.12 25,4001
1989 1988-10-08 4.312 12,500
1990 1990-03-08 6.93 15,400
1991 1991-03-19 15.44 38,800
1992 1992-03-07 8.79 17,400
1993 1993-01-30 10.43 21,500
1994 1994-03-17 9.87 22,200
1995 1994-10-22 10.16 22,900
1996 1996-04-11 6.732 13,900
1997 1997-03-07 8.082 16,800
1998 1998-03-26 17.37 47,700
1999 1998-10-12 9.57 20,800
2000 2000-04-09 3.432 9,380
2001 2001-04-01 5.632 13,500
2002 2002-03-10 3.172 8,430
2003 2003-03-24 12.602 29,200
2004 2004-02-27 6.712 14,000
2005 2005-04-21 14.602 41,800
2006 2006-02-15 7.662 22,600
2007 2007-02-18   9,270
2008 2008-03-08   18,100
2009 2009-04-21 14.482 45,200
2010 2010-02-25 9.612 26,100
2011 2011-04-05 3.852 8,920
2012 2012-07-05   20,6001
2013 2013-03-12   21,7001
2014 2014-05-05   32,3001
2015 2015-02-12   17,4001
2016 2016-04-14   19,5001
2017 2017-09-19   19,4001,2
2018 2018-08-10 7.20 13,6001
2019 2018-12-28 12.282 31,000
2020 2020-06-21   14,9001
2021 2021-03-04   25,1001
?
  Peak Gage-Height Qualification Codes.
?
  Peak Streamflow Qualification Codes.